sensor_id;sensor_type;location;lat;lon;timestamp;temperature;humidity
59311;DHT22;45078;51.654;21.250;2023-09-12T00:02:04;15.00;99.90
59311;DHT22;45078;51.654;21.250;2023-09-12T00:04:30;14.90;99.90
59311;DHT22;45078;51.654;21.250;2023-09-12T00:06:55;14.90;99.90
59311;DHT22;45078;51.654;21.250;2023-09-12T00:09:21;14.90;99.90
59311;DHT22;45078;51.654;21.250;2023-09-12T00:11:47;14.90;99.90
59311;DHT22;45078;51.654;21.250;2023-09-12T00:14:16;14.90;99.90
59311;DHT22;45078;51.654;21.250;2023-09-12T00:16:41;14.90;99.90
59311;DHT22;45078;51.654;21.250;2023-09-12T00:19:07;14.90;99.90
59311;DHT22;45078;51.654;21.250;2023-09-12T00:21:33;14.90;99.90
59311;DHT22;45078;51.654;21.250;2023-09-12T00:23:58;15.00;99.90
59311;DHT22;45078;51.654;21.250;2023-09-12T00:26:24;15.00;99.90
59311;DHT22;45078;51.654;21.250;2023-09-12T00:28:49;15.00;99.90
59311;DHT22;45078;51.654;21.250;2023-09-12T00:31:15;15.00;99.90
59311;DHT22;45078;51.654;21.250;2023-09-12T00:33:40;14.90;99.90
59311;DHT22;45078;51.654;21.250;2023-09-12T00:36:06;14.90;99.90
59311;DHT22;45078;51.654;21.250;2023-09-12T00:38:32;14.90;99.90
59311;DHT22;45078;51.654;21.250;2023-09-12T00:40:57;14.90;99.90
59311;DHT22;45078;51.654;21.250;2023-09-12T00:43:23;15.00;99.90
59311;DHT22;45078;51.654;21.250;2023-09-12T00:45:48;14.90;99.90
59311;DHT22;45078;51.654;21.250;2023-09-12T00:48:15;14.90;99.90
59311;DHT22;45078;51.654;21.250;2023-09-12T00:50:43;14.90;99.90
59311;DHT22;45078;51.654;21.250;2023-09-12T00:53:10;14.90;99.90
59311;DHT22;45078;51.654;21.250;2023-09-12T00:55:37;14.90;99.90
59311;DHT22;45078;51.654;21.250;2023-09-12T00:58:04;14.90;99.90
59311;DHT22;45078;51.654;21.250;2023-09-12T01:00:30;14.80;99.90
59311;DHT22;45078;51.654;21.250;2023-09-12T01:02:57;14.90;99.90
59311;DHT22;45078;51.654;21.250;2023-09-12T01:05:23;14.80;99.90
59311;DHT22;45078;51.654;21.250;2023-09-12T01:07:49;14.80;99.90
59311;DHT22;45078;51.654;21.250;2023-09-12T01:10:15;14.70;99.90
59311;DHT22;45078;51.654;21.250;2023-09-12T01:12:41;14.70;99.90
59311;DHT22;45078;51.654;21.250;2023-09-12T01:15:07;14.70;99.90
59311;DHT22;45078;51.654;21.250;2023-09-12T01:17:40;14.70;99.90
59311;DHT22;45078;51.654;21.250;2023-09-12T01:20:07;14.70;99.90
59311;DHT22;45078;51.654;21.250;2023-09-12T01:22:53;14.70;99.90
59311;DHT22;45078;51.654;21.250;2023-09-12T01:27:47;14.70;99.90
59311;DHT22;45078;51.654;21.250;2023-09-12T01:30:18;14.70;99.90
59311;DHT22;45078;51.654;21.250;2023-09-12T01:32:45;14.60;99.90
59311;DHT22;45078;51.654;21.250;2023-09-12T01:35:12;14.60;99.90
59311;DHT22;45078;51.654;21.250;2023-09-12T01:37:38;14.60;99.90
59311;DHT22;45078;51.654;21.250;2023-09-12T01:40:04;14.60;99.90
59311;DHT22;45078;51.654;21.250;2023-09-12T01:42:35;14.50;99.90
59311;DHT22;45078;51.654;21.250;2023-09-12T01:45:03;14.50;99.90
59311;DHT22;45078;51.654;21.250;2023-09-12T01:47:29;14.50;99.90
59311;DHT22;45078;51.654;21.250;2023-09-12T01:49:57;14.50;99.90
59311;DHT22;45078;51.654;21.250;2023-09-12T01:52:25;14.50;99.90
59311;DHT22;45078;51.654;21.250;2023-09-12T01:54:52;14.40;99.90
59311;DHT22;45078;51.654;21.250;2023-09-12T01:57:18;14.40;99.90
59311;DHT22;45078;51.654;21.250;2023-09-12T01:59:47;14.40;99.90
59311;DHT22;45078;51.654;21.250;2023-09-12T02:02:17;14.30;99.90
59311;DHT22;45078;51.654;21.250;2023-09-12T02:07:44;14.30;99.90
59311;DHT22;45078;51.654;21.250;2023-09-12T02:10:10;14.30;99.90
59311;DHT22;45078;51.654;21.250;2023-09-12T02:12:36;14.30;99.90
59311;DHT22;45078;51.654;21.250;2023-09-12T02:15:02;14.30;99.90
59311;DHT22;45078;51.654;21.250;2023-09-12T02:17:28;14.30;99.90
59311;DHT22;45078;51.654;21.250;2023-09-12T02:19:53;14.30;99.90
59311;DHT22;45078;51.654;21.250;2023-09-12T02:22:19;14.20;99.90
59311;DHT22;45078;51.654;21.250;2023-09-12T02:24:45;14.20;99.90
59311;DHT22;45078;51.654;21.250;2023-09-12T02:27:10;14.20;99.90
59311;DHT22;45078;51.654;21.250;2023-09-12T02:29:38;14.20;99.90
59311;DHT22;45078;51.654;21.250;2023-09-12T02:32:04;14.20;99.90
59311;DHT22;45078;51.654;21.250;2023-09-12T02:34:29;14.10;99.90
59311;DHT22;45078;51.654;21.250;2023-09-12T02:36:55;14.10;99.90
59311;DHT22;45078;51.654;21.250;2023-09-12T02:39:21;14.10;99.90
59311;DHT22;45078;51.654;21.250;2023-09-12T02:41:46;14.10;99.90
59311;DHT22;45078;51.654;21.250;2023-09-12T02:44:12;14.10;99.90
59311;DHT22;45078;51.654;21.250;2023-09-12T02:46:37;14.10;99.90
59311;DHT22;45078;51.654;21.250;2023-09-12T02:49:03;14.10;99.90
59311;DHT22;45078;51.654;21.250;2023-09-12T02:51:29;14.10;99.90
59311;DHT22;45078;51.654;21.250;2023-09-12T02:53:55;14.10;99.90
59311;DHT22;45078;51.654;21.250;2023-09-12T02:56:20;14.00;99.90
59311;DHT22;45078;51.654;21.250;2023-09-12T02:58:47;14.10;99.90
59311;DHT22;45078;51.654;21.250;2023-09-12T03:01:16;14.00;99.90
59311;DHT22;45078;51.654;21.250;2023-09-12T03:03:45;14.10;99.90
59311;DHT22;45078;51.654;21.250;2023-09-12T03:06:12;14.10;99.90
59311;DHT22;45078;51.654;21.250;2023-09-12T03:08:37;14.10;99.90
59311;DHT22;45078;51.654;21.250;2023-09-12T03:11:03;14.10;99.90
59311;DHT22;45078;51.654;21.250;2023-09-12T03:13:29;14.10;99.90
59311;DHT22;45078;51.654;21.250;2023-09-12T03:15:54;14.10;99.90
59311;DHT22;45078;51.654;21.250;2023-09-12T03:18:20;14.10;99.90
59311;DHT22;45078;51.654;21.250;2023-09-12T03:20:46;14.10;99.90
59311;DHT22;45078;51.654;21.250;2023-09-12T03:23:11;14.10;99.90
59311;DHT22;45078;51.654;21.250;2023-09-12T03:25:40;14.00;99.90
59311;DHT22;45078;51.654;21.250;2023-09-12T03:28:06;14.00;99.90
59311;DHT22;45078;51.654;21.250;2023-09-12T03:30:36;13.90;99.90
59311;DHT22;45078;51.654;21.250;2023-09-12T03:33:03;13.90;99.90
59311;DHT22;45078;51.654;21.250;2023-09-12T03:35:30;13.90;99.90
59311;DHT22;45078;51.654;21.250;2023-09-12T03:37:56;13.90;99.90
59311;DHT22;45078;51.654;21.250;2023-09-12T03:40:22;13.80;99.90
59311;DHT22;45078;51.654;21.250;2023-09-12T03:42:47;13.80;99.90
59311;DHT22;45078;51.654;21.250;2023-09-12T03:45:13;13.80;99.90
59311;DHT22;45078;51.654;21.250;2023-09-12T03:47:38;13.70;99.90
59311;DHT22;45078;51.654;21.250;2023-09-12T03:50:05;13.70;99.90
59311;DHT22;45078;51.654;21.250;2023-09-12T03:52:30;13.60;99.90
59311;DHT22;45078;51.654;21.250;2023-09-12T03:54:56;13.60;99.90
59311;DHT22;45078;51.654;21.250;2023-09-12T03:57:22;13.60;99.90
59311;DHT22;45078;51.654;21.250;2023-09-12T03:59:48;13.60;99.90
59311;DHT22;45078;51.654;21.250;2023-09-12T04:02:13;13.50;99.90
59311;DHT22;45078;51.654;21.250;2023-09-12T04:04:39;13.50;99.90
59311;DHT22;45078;51.654;21.250;2023-09-12T04:07:05;13.50;99.90
59311;DHT22;45078;51.654;21.250;2023-09-12T04:09:32;13.40;99.90
59311;DHT22;45078;51.654;21.250;2023-09-12T04:11:57;13.40;99.90
59311;DHT22;45078;51.654;21.250;2023-09-12T04:14:23;13.40;99.90
59311;DHT22;45078;51.654;21.250;2023-09-12T04:16:49;13.40;99.90
59311;DHT22;45078;51.654;21.250;2023-09-12T04:19:14;13.40;99.90
59311;DHT22;45078;51.654;21.250;2023-09-12T04:21:40;13.40;99.90
59311;DHT22;45078;51.654;21.250;2023-09-12T04:24:07;13.40;99.90
59311;DHT22;45078;51.654;21.250;2023-09-12T04:26:34;13.40;99.90
59311;DHT22;45078;51.654;21.250;2023-09-12T04:29:00;13.40;99.90
59311;DHT22;45078;51.654;21.250;2023-09-12T04:31:26;13.40;99.90
59311;DHT22;45078;51.654;21.250;2023-09-12T04:33:52;13.50;99.90
59311;DHT22;45078;51.654;21.250;2023-09-12T04:36:18;13.50;99.90
59311;DHT22;45078;51.654;21.250;2023-09-12T04:38:44;13.50;99.90
59311;DHT22;45078;51.654;21.250;2023-09-12T04:41:12;13.60;99.90
59311;DHT22;45078;51.654;21.250;2023-09-12T04:43:41;13.70;99.90
59311;DHT22;45078;51.654;21.250;2023-09-12T04:46:06;13.70;99.90
59311;DHT22;45078;51.654;21.250;2023-09-12T04:48:32;13.70;99.90
59311;DHT22;45078;51.654;21.250;2023-09-12T04:50:58;13.80;99.90
59311;DHT22;45078;51.654;21.250;2023-09-12T04:53:23;13.90;99.90
59311;DHT22;45078;51.654;21.250;2023-09-12T04:55:52;13.90;99.90
59311;DHT22;45078;51.654;21.250;2023-09-12T04:58:17;13.90;99.90
59311;DHT22;45078;51.654;21.250;2023-09-12T05:00:43;14.00;99.90
59311;DHT22;45078;51.654;21.250;2023-09-12T05:03:09;14.10;99.90
59311;DHT22;45078;51.654;21.250;2023-09-12T05:05:35;14.20;99.90
59311;DHT22;45078;51.654;21.250;2023-09-12T05:08:02;14.30;99.90
59311;DHT22;45078;51.654;21.250;2023-09-12T05:10:27;14.40;99.90
59311;DHT22;45078;51.654;21.250;2023-09-12T05:12:53;14.50;99.90
59311;DHT22;45078;51.654;21.250;2023-09-12T05:15:19;14.60;99.90
59311;DHT22;45078;51.654;21.250;2023-09-12T05:17:44;14.80;99.90
59311;DHT22;45078;51.654;21.250;2023-09-12T05:20:10;14.90;99.90
59311;DHT22;45078;51.654;21.250;2023-09-12T05:22:36;15.10;99.90
59311;DHT22;45078;51.654;21.250;2023-09-12T05:25:01;15.30;99.90
59311;DHT22;45078;51.654;21.250;2023-09-12T05:27:27;15.50;99.90
59311;DHT22;45078;51.654;21.250;2023-09-12T05:29:52;15.70;99.90
59311;DHT22;45078;51.654;21.250;2023-09-12T05:32:18;15.90;99.90
59311;DHT22;45078;51.654;21.250;2023-09-12T05:34:44;16.10;99.90
59311;DHT22;45078;51.654;21.250;2023-09-12T05:37:10;16.30;99.90
59311;DHT22;45078;51.654;21.250;2023-09-12T05:39:36;16.60;99.90
59311;DHT22;45078;51.654;21.250;2023-09-12T05:42:02;16.70;99.90
59311;DHT22;45078;51.654;21.250;2023-09-12T05:44:27;16.90;99.90
59311;DHT22;45078;51.654;21.250;2023-09-12T05:46:53;17.10;99.90
59311;DHT22;45078;51.654;21.250;2023-09-12T05:49:19;17.40;99.90
59311;DHT22;45078;51.654;21.250;2023-09-12T05:51:45;17.70;99.90
59311;DHT22;45078;51.654;21.250;2023-09-12T05:54:11;18.10;99.90
59311;DHT22;45078;51.654;21.250;2023-09-12T05:56:39;18.40;99.90
59311;DHT22;45078;51.654;21.250;2023-09-12T05:59:05;18.80;99.90
59311;DHT22;45078;51.654;21.250;2023-09-12T06:01:31;19.40;99.90
59311;DHT22;45078;51.654;21.250;2023-09-12T06:03:57;20.00;99.90
59311;DHT22;45078;51.654;21.250;2023-09-12T06:06:22;20.60;99.90
59311;DHT22;45078;51.654;21.250;2023-09-12T06:08:48;21.10;99.90
59311;DHT22;45078;51.654;21.250;2023-09-12T06:11:14;21.70;99.90
59311;DHT22;45078;51.654;21.250;2023-09-12T06:13:39;21.90;99.90
59311;DHT22;45078;51.654;21.250;2023-09-12T06:16:05;22.30;99.90
59311;DHT22;45078;51.654;21.250;2023-09-12T06:18:32;22.50;99.90
59311;DHT22;45078;51.654;21.250;2023-09-12T06:21:01;22.50;99.90
59311;DHT22;45078;51.654;21.250;2023-09-12T06:23:30;22.50;99.90
59311;DHT22;45078;51.654;21.250;2023-09-12T06:25:56;22.50;99.90
59311;DHT22;45078;51.654;21.250;2023-09-12T06:28:25;22.50;99.90
59311;DHT22;45078;51.654;21.250;2023-09-12T06:30:51;22.60;99.90
59311;DHT22;45078;51.654;21.250;2023-09-12T06:33:17;22.60;99.90
59311;DHT22;45078;51.654;21.250;2023-09-12T06:35:42;22.70;99.90
59311;DHT22;45078;51.654;21.250;2023-09-12T06:38:08;22.80;99.90
59311;DHT22;45078;51.654;21.250;2023-09-12T06:40:34;22.90;99.90
59311;DHT22;45078;51.654;21.250;2023-09-12T06:42:59;23.10;99.90
59311;DHT22;45078;51.654;21.250;2023-09-12T06:45:25;23.20;99.90
59311;DHT22;45078;51.654;21.250;2023-09-12T06:47:50;23.30;99.90
59311;DHT22;45078;51.654;21.250;2023-09-12T06:50:16;23.50;99.90
59311;DHT22;45078;51.654;21.250;2023-09-12T06:52:42;23.60;99.90
59311;DHT22;45078;51.654;21.250;2023-09-12T06:55:07;23.60;99.90
59311;DHT22;45078;51.654;21.250;2023-09-12T06:57:33;23.70;99.90
59311;DHT22;45078;51.654;21.250;2023-09-12T06:59:59;23.80;99.90
59311;DHT22;45078;51.654;21.250;2023-09-12T07:02:26;23.90;99.90
59311;DHT22;45078;51.654;21.250;2023-09-12T07:04:51;24.00;99.90
59311;DHT22;45078;51.654;21.250;2023-09-12T07:07:17;23.90;99.90
59311;DHT22;45078;51.654;21.250;2023-09-12T07:09:43;24.00;99.90
59311;DHT22;45078;51.654;21.250;2023-09-12T07:12:08;24.10;99.90
59311;DHT22;45078;51.654;21.250;2023-09-12T07:14:35;24.10;99.90
59311;DHT22;45078;51.654;21.250;2023-09-12T07:17:03;24.20;99.90
59311;DHT22;45078;51.654;21.250;2023-09-12T07:19:31;24.30;99.90
59311;DHT22;45078;51.654;21.250;2023-09-12T07:21:56;24.20;99.90
59311;DHT22;45078;51.654;21.250;2023-09-12T07:24:26;24.30;99.90
59311;DHT22;45078;51.654;21.250;2023-09-12T07:26:52;24.30;99.90
59311;DHT22;45078;51.654;21.250;2023-09-12T07:29:17;24.50;99.90
59311;DHT22;45078;51.654;21.250;2023-09-12T07:31:43;24.60;99.90
59311;DHT22;45078;51.654;21.250;2023-09-12T07:34:09;24.60;99.90
59311;DHT22;45078;51.654;21.250;2023-09-12T07:36:35;24.70;99.90
59311;DHT22;45078;51.654;21.250;2023-09-12T07:39:01;24.80;99.90
59311;DHT22;45078;51.654;21.250;2023-09-12T07:41:28;24.90;99.90
59311;DHT22;45078;51.654;21.250;2023-09-12T07:43:54;25.00;99.90
59311;DHT22;45078;51.654;21.250;2023-09-12T07:46:19;25.10;99.90
59311;DHT22;45078;51.654;21.250;2023-09-12T07:48:45;25.30;99.90
59311;DHT22;45078;51.654;21.250;2023-09-12T07:51:14;25.40;99.90
59311;DHT22;45078;51.654;21.250;2023-09-12T07:53:41;25.50;99.90
59311;DHT22;45078;51.654;21.250;2023-09-12T07:56:09;25.50;99.90
59311;DHT22;45078;51.654;21.250;2023-09-12T07:58:35;25.70;99.90
59311;DHT22;45078;51.654;21.250;2023-09-12T08:01:08;25.70;99.90
59311;DHT22;45078;51.654;21.250;2023-09-12T08:03:35;25.80;99.90
59311;DHT22;45078;51.654;21.250;2023-09-12T08:06:02;26.00;99.90
59311;DHT22;45078;51.654;21.250;2023-09-12T08:08:29;26.00;99.90
59311;DHT22;45078;51.654;21.250;2023-09-12T08:10:54;26.10;99.90
59311;DHT22;45078;51.654;21.250;2023-09-12T08:13:20;26.20;99.90
59311;DHT22;45078;51.654;21.250;2023-09-12T08:15:46;26.30;99.90
59311;DHT22;45078;51.654;21.250;2023-09-12T08:18:12;26.40;99.90
59311;DHT22;45078;51.654;21.250;2023-09-12T08:20:37;26.30;99.90
59311;DHT22;45078;51.654;21.250;2023-09-12T08:23:03;26.40;99.90
59311;DHT22;45078;51.654;21.250;2023-09-12T08:25:29;26.50;99.90
59311;DHT22;45078;51.654;21.250;2023-09-12T08:27:55;26.60;99.90
59311;DHT22;45078;51.654;21.250;2023-09-12T08:30:20;26.70;99.90
59311;DHT22;45078;51.654;21.250;2023-09-12T08:32:46;26.70;99.90
59311;DHT22;45078;51.654;21.250;2023-09-12T08:35:13;27.00;99.90
59311;DHT22;45078;51.654;21.250;2023-09-12T08:37:40;27.20;99.90
59311;DHT22;45078;51.654;21.250;2023-09-12T08:40:07;27.30;99.90
59311;DHT22;45078;51.654;21.250;2023-09-12T08:42:45;27.30;99.90
59311;DHT22;45078;51.654;21.250;2023-09-12T08:45:13;27.50;99.90
59311;DHT22;45078;51.654;21.250;2023-09-12T08:47:41;27.30;99.90
59311;DHT22;45078;51.654;21.250;2023-09-12T08:50:12;27.40;99.90
59311;DHT22;45078;51.654;21.250;2023-09-12T08:52:42;27.50;99.90
59311;DHT22;45078;51.654;21.250;2023-09-12T08:55:08;27.30;99.90
59311;DHT22;45078;51.654;21.250;2023-09-12T08:57:37;27.60;99.90
59311;DHT22;45078;51.654;21.250;2023-09-12T09:00:05;27.50;99.90
59311;DHT22;45078;51.654;21.250;2023-09-12T09:02:36;27.60;99.90
59311;DHT22;45078;51.654;21.250;2023-09-12T09:05:04;27.40;99.90
59311;DHT22;45078;51.654;21.250;2023-09-12T09:07:36;27.50;99.90
59311;DHT22;45078;51.654;21.250;2023-09-12T09:10:04;27.60;99.90
59311;DHT22;45078;51.654;21.250;2023-09-12T09:12:34;27.60;99.90
59311;DHT22;45078;51.654;21.250;2023-09-12T09:17:56;27.70;99.90
59311;DHT22;45078;51.654;21.250;2023-09-12T09:23:09;27.90;97.90
59311;DHT22;45078;51.654;21.250;2023-09-12T09:25:36;27.70;95.30
59311;DHT22;45078;51.654;21.250;2023-09-12T09:28:04;27.80;96.40
59311;DHT22;45078;51.654;21.250;2023-09-12T09:30:44;27.90;96.10
59311;DHT22;45078;51.654;21.250;2023-09-12T09:33:11;28.10;96.70
59311;DHT22;45078;51.654;21.250;2023-09-12T09:35:38;28.10;97.00
59311;DHT22;45078;51.654;21.250;2023-09-12T09:38:07;28.10;97.30
59311;DHT22;45078;51.654;21.250;2023-09-12T09:40:33;28.10;96.00
59311;DHT22;45078;51.654;21.250;2023-09-12T09:43:00;28.20;95.20
59311;DHT22;45078;51.654;21.250;2023-09-12T09:45:30;28.20;94.60
59311;DHT22;45078;51.654;21.250;2023-09-12T09:48:04;28.20;94.80
59311;DHT22;45078;51.654;21.250;2023-09-12T09:50:34;28.20;92.80
59311;DHT22;45078;51.654;21.250;2023-09-12T09:53:02;28.40;92.40
59311;DHT22;45078;51.654;21.250;2023-09-12T09:55:30;28.40;93.50
59311;DHT22;45078;51.654;21.250;2023-09-12T09:57:55;28.60;94.40
59311;DHT22;45078;51.654;21.250;2023-09-12T10:00:22;28.90;93.20
59311;DHT22;45078;51.654;21.250;2023-09-12T10:02:50;29.00;89.90
59311;DHT22;45078;51.654;21.250;2023-09-12T10:05:17;29.00;90.00
59311;DHT22;45078;51.654;21.250;2023-09-12T10:07:47;29.10;90.30
59311;DHT22;45078;51.654;21.250;2023-09-12T10:10:13;29.30;87.00
59311;DHT22;45078;51.654;21.250;2023-09-12T10:12:46;29.40;87.90
59311;DHT22;45078;51.654;21.250;2023-09-12T10:15:14;29.60;84.40
59311;DHT22;45078;51.654;21.250;2023-09-12T10:17:42;29.90;82.60
59311;DHT22;45078;51.654;21.250;2023-09-12T10:20:15;30.00;78.30
59311;DHT22;45078;51.654;21.250;2023-09-12T10:22:59;30.00;78.50
59311;DHT22;45078;51.654;21.250;2023-09-12T10:25:28;29.60;79.50
59311;DHT22;45078;51.654;21.250;2023-09-12T10:27:55;29.20;77.20
59311;DHT22;45078;51.654;21.250;2023-09-12T10:30:22;29.20;78.30
59311;DHT22;45078;51.654;21.250;2023-09-12T10:32:48;29.10;74.00
59311;DHT22;45078;51.654;21.250;2023-09-12T10:35:15;29.20;74.10
59311;DHT22;45078;51.654;21.250;2023-09-12T10:37:41;29.40;76.40
59311;DHT22;45078;51.654;21.250;2023-09-12T10:40:09;29.30;76.20
59311;DHT22;45078;51.654;21.250;2023-09-12T10:42:36;29.30;75.00
59311;DHT22;45078;51.654;21.250;2023-09-12T10:45:06;29.20;74.60
59311;DHT22;45078;51.654;21.250;2023-09-12T10:47:37;29.30;73.80
59311;DHT22;45078;51.654;21.250;2023-09-12T10:50:04;29.40;72.30
59311;DHT22;45078;51.654;21.250;2023-09-12T10:52:30;29.30;69.90
59311;DHT22;45078;51.654;21.250;2023-09-12T10:54:56;29.40;70.40
59311;DHT22;45078;51.654;21.250;2023-09-12T10:57:21;29.60;68.20
59311;DHT22;45078;51.654;21.250;2023-09-12T11:02:33;29.90;66.40
59311;DHT22;45078;51.654;21.250;2023-09-12T11:05:01;30.00;68.30
59311;DHT22;45078;51.654;21.250;2023-09-12T11:10:16;30.10;67.90
59311;DHT22;45078;51.654;21.250;2023-09-12T11:12:46;30.30;70.40
59311;DHT22;45078;51.654;21.250;2023-09-12T11:15:13;30.20;68.70
59311;DHT22;45078;51.654;21.250;2023-09-12T11:17:41;30.10;70.70
59311;DHT22;45078;51.654;21.250;2023-09-12T11:20:08;30.10;70.00
59311;DHT22;45078;51.654;21.250;2023-09-12T11:22:38;30.20;72.00
59311;DHT22;45078;51.654;21.250;2023-09-12T11:28:02;29.90;68.80
59311;DHT22;45078;51.654;21.250;2023-09-12T11:30:31;29.80;68.00
59311;DHT22;45078;51.654;21.250;2023-09-12T11:32:57;29.80;69.70
59311;DHT22;45078;51.654;21.250;2023-09-12T11:35:28;29.90;68.80
59311;DHT22;45078;51.654;21.250;2023-09-12T11:37:59;30.10;68.60
59311;DHT22;45078;51.654;21.250;2023-09-12T11:42:57;30.00;68.60
59311;DHT22;45078;51.654;21.250;2023-09-12T11:45:23;30.00;70.00
59311;DHT22;45078;51.654;21.250;2023-09-12T11:47:49;30.20;67.70
59311;DHT22;45078;51.654;21.250;2023-09-12T11:50:31;30.30;70.20
59311;DHT22;45078;51.654;21.250;2023-09-12T11:55:36;30.80;67.80
59311;DHT22;45078;51.654;21.250;2023-09-12T11:58:02;30.40;66.70
59311;DHT22;45078;51.654;21.250;2023-09-12T12:00:28;30.30;67.20
59311;DHT22;45078;51.654;21.250;2023-09-12T12:02:55;30.20;67.60
59311;DHT22;45078;51.654;21.250;2023-09-12T12:05:21;30.30;67.90
59311;DHT22;45078;51.654;21.250;2023-09-12T12:07:48;30.40;67.30
59311;DHT22;45078;51.654;21.250;2023-09-12T12:10:14;30.60;68.30
59311;DHT22;45078;51.654;21.250;2023-09-12T12:12:43;30.40;66.80
59311;DHT22;45078;51.654;21.250;2023-09-12T12:15:13;30.70;69.00
59311;DHT22;45078;51.654;21.250;2023-09-12T12:17:41;31.00;67.90
59311;DHT22;45078;51.654;21.250;2023-09-12T12:20:08;31.10;64.80
59311;DHT22;45078;51.654;21.250;2023-09-12T12:22:39;31.10;66.40
59311;DHT22;45078;51.654;21.250;2023-09-12T12:25:07;31.10;65.30
59311;DHT22;45078;51.654;21.250;2023-09-12T12:27:35;30.80;65.90
59311;DHT22;45078;51.654;21.250;2023-09-12T12:30:00;30.80;66.60
59311;DHT22;45078;51.654;21.250;2023-09-12T12:32:26;30.60;65.20
59311;DHT22;45078;51.654;21.250;2023-09-12T12:34:52;30.70;66.80
59311;DHT22;45078;51.654;21.250;2023-09-12T12:37:17;30.60;67.10
59311;DHT22;45078;51.654;21.250;2023-09-12T12:39:43;30.40;68.10
59311;DHT22;45078;51.654;21.250;2023-09-12T12:42:09;30.10;67.20
59311;DHT22;45078;51.654;21.250;2023-09-12T12:44:35;30.30;68.40
59311;DHT22;45078;51.654;21.250;2023-09-12T12:47:08;30.40;69.50
59311;DHT22;45078;51.654;21.250;2023-09-12T12:49:37;30.60;67.20
59311;DHT22;45078;51.654;21.250;2023-09-12T12:52:09;30.80;66.40
59311;DHT22;45078;51.654;21.250;2023-09-12T12:54:35;30.80;66.20
59311;DHT22;45078;51.654;21.250;2023-09-12T12:57:01;30.70;68.60
59311;DHT22;45078;51.654;21.250;2023-09-12T12:59:28;30.70;65.80
59311;DHT22;45078;51.654;21.250;2023-09-12T13:01:55;30.70;66.70
59311;DHT22;45078;51.654;21.250;2023-09-12T13:04:21;30.90;66.80
59311;DHT22;45078;51.654;21.250;2023-09-12T13:06:49;30.70;66.60
59311;DHT22;45078;51.654;21.250;2023-09-12T13:09:14;30.30;66.30
59311;DHT22;45078;51.654;21.250;2023-09-12T13:11:42;30.00;68.00
59311;DHT22;45078;51.654;21.250;2023-09-12T13:14:07;29.80;69.10
59311;DHT22;45078;51.654;21.250;2023-09-12T13:16:37;29.50;69.40
59311;DHT22;45078;51.654;21.250;2023-09-12T13:19:04;29.50;70.30
59311;DHT22;45078;51.654;21.250;2023-09-12T13:21:30;29.50;70.10
59311;DHT22;45078;51.654;21.250;2023-09-12T13:23:57;29.60;73.20
59311;DHT22;45078;51.654;21.250;2023-09-12T13:26:23;29.50;75.40
59311;DHT22;45078;51.654;21.250;2023-09-12T13:28:48;29.50;76.50
59311;DHT22;45078;51.654;21.250;2023-09-12T13:31:14;29.50;76.80
59311;DHT22;45078;51.654;21.250;2023-09-12T13:33:40;29.50;76.80
59311;DHT22;45078;51.654;21.250;2023-09-12T13:36:07;29.60;78.10
59311;DHT22;45078;51.654;21.250;2023-09-12T13:38:33;29.80;79.50
59311;DHT22;45078;51.654;21.250;2023-09-12T13:40:58;30.50;78.20
59311;DHT22;45078;51.654;21.250;2023-09-12T13:43:24;31.20;73.10
59311;DHT22;45078;51.654;21.250;2023-09-12T13:45:49;32.00;70.00
59311;DHT22;45078;51.654;21.250;2023-09-12T13:48:15;31.70;66.10
59311;DHT22;45078;51.654;21.250;2023-09-12T13:50:41;31.50;66.90
59311;DHT22;45078;51.654;21.250;2023-09-12T13:53:08;31.70;69.60
59311;DHT22;45078;51.654;21.250;2023-09-12T13:55:35;32.80;71.00
59311;DHT22;45078;51.654;21.250;2023-09-12T13:58:04;34.20;64.00
59311;DHT22;45078;51.654;21.250;2023-09-12T14:00:31;34.30;63.20
59311;DHT22;45078;51.654;21.250;2023-09-12T14:02:57;34.30;59.90
59311;DHT22;45078;51.654;21.250;2023-09-12T14:05:23;34.10;60.30
59311;DHT22;45078;51.654;21.250;2023-09-12T14:07:48;34.90;60.60
59311;DHT22;45078;51.654;21.250;2023-09-12T14:10:15;35.20;58.30
59311;DHT22;45078;51.654;21.250;2023-09-12T14:12:40;35.90;58.00
59311;DHT22;45078;51.654;21.250;2023-09-12T14:15:07;36.80;58.30
59311;DHT22;45078;51.654;21.250;2023-09-12T14:17:33;37.50;56.90
59311;DHT22;45078;51.654;21.250;2023-09-12T14:19:58;38.20;53.50
59311;DHT22;45078;51.654;21.250;2023-09-12T14:22:24;38.50;53.60
59311;DHT22;45078;51.654;21.250;2023-09-12T14:24:50;38.90;52.10
59311;DHT22;45078;51.654;21.250;2023-09-12T14:27:15;38.70;51.40
59311;DHT22;45078;51.654;21.250;2023-09-12T14:29:41;38.60;51.50
59311;DHT22;45078;51.654;21.250;2023-09-12T14:32:11;38.30;51.80
59311;DHT22;45078;51.654;21.250;2023-09-12T14:34:37;37.40;51.70
59311;DHT22;45078;51.654;21.250;2023-09-12T14:37:02;36.40;53.90
59311;DHT22;45078;51.654;21.250;2023-09-12T14:39:28;35.40;55.30
59311;DHT22;45078;51.654;21.250;2023-09-12T14:41:53;35.30;55.70
59311;DHT22;45078;51.654;21.250;2023-09-12T14:44:26;35.80;56.20
59311;DHT22;45078;51.654;21.250;2023-09-12T14:46:53;36.00;56.70
59311;DHT22;45078;51.654;21.250;2023-09-12T14:49:19;36.40;54.50
59311;DHT22;45078;51.654;21.250;2023-09-12T14:51:45;36.40;53.70
59311;DHT22;45078;51.654;21.250;2023-09-12T14:54:10;36.30;53.80
59311;DHT22;45078;51.654;21.250;2023-09-12T14:56:36;36.30;54.30
59311;DHT22;45078;51.654;21.250;2023-09-12T14:59:04;36.20;53.50
59311;DHT22;45078;51.654;21.250;2023-09-12T15:01:30;36.20;53.90
59311;DHT22;45078;51.654;21.250;2023-09-12T15:03:55;36.00;54.90
59311;DHT22;45078;51.654;21.250;2023-09-12T15:06:22;35.80;56.80
59311;DHT22;45078;51.654;21.250;2023-09-12T15:08:48;35.40;56.30
59311;DHT22;45078;51.654;21.250;2023-09-12T15:11:14;34.80;56.50
59311;DHT22;45078;51.654;21.250;2023-09-12T15:13:39;34.20;60.00
59311;DHT22;45078;51.654;21.250;2023-09-12T15:16:05;33.90;60.70
59311;DHT22;45078;51.654;21.250;2023-09-12T15:18:31;33.80;61.00
59311;DHT22;45078;51.654;21.250;2023-09-12T15:20:57;33.40;60.50
59311;DHT22;45078;51.654;21.250;2023-09-12T15:23:23;33.30;62.40
59311;DHT22;45078;51.654;21.250;2023-09-12T15:25:50;33.20;63.60
59311;DHT22;45078;51.654;21.250;2023-09-12T15:28:15;32.70;64.60
59311;DHT22;45078;51.654;21.250;2023-09-12T15:30:41;32.00;68.10
59311;DHT22;45078;51.654;21.250;2023-09-12T15:33:06;31.60;68.50
59311;DHT22;45078;51.654;21.250;2023-09-12T15:35:32;31.20;69.90
59311;DHT22;45078;51.654;21.250;2023-09-12T15:37:58;30.90;71.50